Palmer Lake, CO (80133)

9:16 AM MDT on October 01, 2014 (GMT -0600)
Wags | Change Station
CLOSE
Current Station
Personal Weather Station
Location: Palmer Lake, CO
Elevation: 7228 ft
Nearby Weather Stations

Elev 7228 ft 39.12 °N, 104.92 °W | Updated 1 second ago

Partly Cloudy
Partly Cloudy
54.3 °F
Feels Like 54.3 °F
N
0.7
Wind Variable Wind from SE
Gusts 4.0 mph

Today
High -- | Low -- °F
--% Chance of Precip.
Yesterday
High -- | Low -- °F
Precip. -- in
6:55 AM 6:42 PM
Waxing Crescent, 48% visible
Pressure 29.75 in
Visibility 10.0 miles
Clouds Clear
Dew Point 33 °F
Humidity 44%
Rainfall 0.00 in
Snow Depth 1 in , 0 in , 0 in
UV 2 out of 12
Pollen 4.10 out of 12
Ozone Good
PM2.5 Good
Flu Activity Not available.
METAR KAFF 301458Z AUTO VRB02KT 10SM CLR 13/M04 A2992 RMK AO2 SLP073 T01301044 50002

More Conditions Fewer Conditions

Pressure 29.75 in
Visibility 10.0 miles
Clouds Clear
Dew Point 33 °F
Humidity 44%
Rainfall 0.00 in
Snow Depth 1 in , 0 in , 0 in
UV 2 out of 12
Pollen 4.10 out of 12
Ozone Good
PM2.5 Good
Flu Activity Not available.
METAR KAFF 301458Z AUTO VRB02KT 10SM CLR 13/M04 A2992 RMK AO2 SLP073 T01301044 50002

More Conditions Fewer Conditions

10-Day Weather Forecast

Almanac

Astronomy

Oct. 01, 2014 Rise Set
Actual Time 6:55 AM MDT 6:42 PM MDT
Civil Twilight 6:29 AM MDT 7:08 PM MDT
Nautical Twilight 5:58 AM MDT 7:39 PM MDT
Astronomical Twilight 5:26 AM MDT 8:10 PM MDT
Moon 1:56 PM MDT No Moon Set
Length of Visible Light 12h 39m
Length of Day
11h 46m
Tomorrow will be 2m 31s shorter.
Waxing Crescent, 48% of the Moon is Illuminated
Today
Waxing Crescent
Oct 1
First Quarter
Oct 8
Full
Oct 15
Last Quarter
Oct 23
New

Today's Extremes

State Highs State Lows

Community

WunderPhotos

Upload Photos

1,757,966 photos uploaded!

Nearby

Air Quality

  Air Quality AQ Index Pollutant
Yesterday Good
OZONE
Yesterday Good
PM2.5
Current Good
OZONE
Current Good
PM2.5
Wednesday Good
PM2.5
Wednesday Good
OZONE

Snow Depth

Station Depth Elevation
Lizard Head Pass 1 in 10200 ft
Columbus Basin 0 in 10785 ft
Molas Lake 0 in 10500 ft
Cascade 0 in 8880 ft
Beaver Creek Village 0 in 8500 ft

Earthquake Activity

City Distance Mag. Time & Date
No recent earthquake activity has been reported nearby.
Minimum magnitude displayed is 2.5.

Coastal Water Temperatures

Place Temperature
No Stations Reporting

Nearby Weather Stations